createdAt,value
2022-07-29T00:00:53.362Z,12.50
2022-07-29T00:03:20.469Z,12.50
2022-07-29T00:05:47.754Z,12.60
2022-07-29T00:08:16.759Z,12.50
2022-07-29T00:10:44.034Z,12.70
2022-07-29T00:13:11.317Z,12.60
2022-07-29T00:15:38.543Z,12.60
2022-07-29T00:18:05.789Z,12.50
2022-07-29T00:20:33.203Z,12.60
2022-07-29T00:23:00.435Z,12.40
2022-07-29T00:25:27.634Z,12.40
2022-07-29T00:27:54.740Z,12.40
2022-07-29T00:30:21.868Z,12.40
2022-07-29T00:32:49.222Z,12.40
2022-07-29T00:35:34.838Z,12.30
2022-07-29T00:38:02.206Z,12.30
2022-07-29T00:40:29.538Z,12.30
2022-07-29T00:42:56.727Z,12.20
2022-07-29T00:45:23.837Z,12.10
2022-07-29T00:47:51.666Z,12.20
2022-07-29T00:50:19.584Z,12.10
2022-07-29T00:52:47.033Z,12.10
2022-07-29T00:55:17.086Z,11.80
2022-07-29T00:57:45.697Z,11.80
2022-07-29T01:00:19.557Z,11.70
2022-07-29T01:02:49.480Z,11.70
2022-07-29T01:05:19.953Z,11.70
2022-07-29T01:07:49.345Z,11.70
2022-07-29T01:10:19.612Z,11.60
2022-07-29T01:12:50.933Z,11.70
2022-07-29T01:15:18.265Z,11.60
2022-07-29T01:18:12.556Z,11.50
2022-07-29T01:21:00.264Z,11.50
2022-07-29T01:23:27.812Z,11.60
2022-07-29T01:26:20.485Z,11.60
2022-07-29T01:29:00.213Z,11.40
2022-07-29T01:31:49.169Z,11.30
2022-07-29T01:34:37.577Z,11.40
2022-07-29T01:37:42.796Z,11.50
2022-07-29T01:40:19.440Z,11.30
2022-07-29T01:42:52.663Z,11.30
2022-07-29T01:45:38.238Z,11.40
2022-07-29T01:48:13.280Z,11.30
2022-07-29T01:51:00.239Z,11.20
2022-07-29T01:53:36.439Z,11.10
2022-07-29T01:56:05.950Z,11.10
2022-07-29T01:58:34.296Z,11.30
2022-07-29T02:01:03.156Z,11.30
2022-07-29T02:03:31.412Z,11.30
2022-07-29T02:06:02.626Z,11.40
2022-07-29T02:08:31.374Z,11.30
2022-07-29T02:11:01.017Z,11.30
2022-07-29T02:13:30.257Z,11.20
2022-07-29T02:15:59.728Z,11.10
2022-07-29T02:18:29.307Z,11.00
2022-07-29T02:20:58.389Z,10.90
2022-07-29T02:23:27.429Z,10.90
2022-07-29T02:25:58.518Z,10.90
2022-07-29T02:28:28.429Z,10.80
2022-07-29T02:30:59.337Z,10.80
2022-07-29T02:33:27.544Z,10.70
2022-07-29T02:35:56.086Z,10.70
2022-07-29T02:38:43.514Z,10.60
2022-07-29T02:41:14.773Z,10.60
2022-07-29T02:43:46.170Z,10.60
2022-07-29T02:46:28.318Z,10.50
2022-07-29T02:49:10.610Z,10.40
2022-07-29T02:51:52.534Z,10.50
2022-07-29T02:54:34.506Z,10.40
2022-07-29T02:57:07.477Z,10.50
2022-07-29T02:59:38.221Z,10.40
2022-07-29T03:02:08.474Z,10.50
2022-07-29T03:04:36.643Z,10.40
2022-07-29T03:07:06.292Z,10.40
2022-07-29T03:09:34.176Z,10.50
2022-07-29T03:12:02.051Z,10.50
2022-07-29T03:14:29.752Z,10.60
2022-07-29T03:16:57.546Z,10.60
2022-07-29T03:19:31.105Z,10.60
2022-07-29T03:21:59.973Z,10.60
2022-07-29T03:24:34.982Z,10.70
2022-07-29T03:27:07.947Z,10.70
2022-07-29T03:29:35.875Z,10.80
2022-07-29T03:32:08.156Z,10.90
2022-07-29T03:34:37.549Z,10.90
2022-07-29T03:37:05.293Z,11.10
2022-07-29T03:39:37.651Z,11.00
2022-07-29T03:42:07.939Z,11.20
2022-07-29T03:44:37.341Z,11.40
2022-07-29T03:47:08.056Z,11.40
2022-07-29T03:49:38.252Z,11.50
2022-07-29T03:52:06.392Z,11.60
2022-07-29T03:54:33.969Z,11.70
2022-07-29T03:57:07.036Z,11.90
2022-07-29T03:59:35.252Z,12.20
2022-07-29T04:02:05.595Z,12.10
2022-07-29T04:04:37.321Z,12.30
2022-07-29T04:07:05.217Z,12.50
2022-07-29T04:09:32.722Z,12.60
2022-07-29T04:12:03.083Z,12.80
2022-07-29T04:14:32.891Z,13.10
2022-07-29T04:17:01.098Z,13.40
2022-07-29T04:19:28.488Z,13.50
2022-07-29T04:21:55.924Z,13.70
2022-07-29T04:24:23.145Z,14.00
2022-07-29T04:26:50.873Z,14.30
2022-07-29T04:29:18.273Z,14.50
2022-07-29T04:31:45.928Z,14.80
2022-07-29T04:34:14.990Z,15.10
2022-07-29T04:36:42.472Z,15.40
2022-07-29T04:39:09.614Z,15.60
2022-07-29T04:41:36.769Z,15.70
2022-07-29T04:44:07.117Z,15.80
2022-07-29T04:46:36.194Z,16.00
2022-07-29T04:49:04.390Z,16.10
2022-07-29T04:51:31.745Z,16.10
2022-07-29T04:53:58.963Z,16.10
2022-07-29T04:56:26.315Z,16.30
2022-07-29T04:58:53.472Z,16.50
2022-07-29T05:01:20.871Z,16.70
2022-07-29T05:03:48.009Z,16.90
2022-07-29T05:06:15.071Z,17.10
2022-07-29T05:08:42.335Z,17.40
2022-07-29T05:11:12.167Z,17.60
2022-07-29T05:13:45.224Z,17.70
2022-07-29T05:16:14.500Z,17.80
2022-07-29T05:18:42.209Z,17.90
2022-07-29T05:21:09.484Z,18.00
2022-07-29T05:23:36.858Z,18.30
2022-07-29T05:26:04.210Z,18.30
2022-07-29T05:28:36.234Z,18.40
2022-07-29T05:31:03.613Z,18.60
2022-07-29T05:33:36.521Z,18.70
2022-07-29T05:36:08.481Z,18.70
2022-07-29T05:38:39.087Z,18.90
2022-07-29T05:41:06.828Z,19.00
2022-07-29T05:43:34.188Z,19.20
2022-07-29T05:46:01.344Z,19.20
2022-07-29T05:48:28.737Z,19.30
2022-07-29T05:50:56.107Z,19.50
2022-07-29T05:53:23.881Z,19.80
2022-07-29T05:55:51.098Z,20.00
2022-07-29T05:58:18.220Z,20.30
2022-07-29T06:00:45.643Z,20.60
2022-07-29T06:03:12.915Z,20.70
2022-07-29T06:05:40.559Z,21.10
2022-07-29T06:08:08.548Z,21.60
2022-07-29T06:10:36.822Z,22.00
2022-07-29T06:13:04.184Z,22.10
2022-07-29T06:15:31.474Z,22.00
2022-07-29T06:18:00.685Z,21.90
2022-07-29T06:20:31.561Z,22.20
2022-07-29T06:22:59.514Z,22.30
2022-07-29T06:25:26.995Z,21.60
2022-07-29T06:27:54.227Z,20.90
2022-07-29T06:30:21.355Z,20.40
2022-07-29T06:32:50.935Z,20.00
2022-07-29T06:35:39.081Z,19.50
2022-07-29T06:38:12.064Z,19.40
2022-07-29T06:41:08.869Z,19.20
2022-07-29T06:43:50.682Z,18.80
2022-07-29T06:46:20.336Z,18.40
2022-07-29T06:48:48.723Z,18.70
2022-07-29T06:51:16.401Z,19.50
2022-07-29T06:54:00.514Z,20.40
2022-07-29T06:56:31.999Z,21.10
2022-07-29T06:59:06.614Z,21.00
2022-07-29T07:01:33.903Z,20.40
2022-07-29T07:04:01.041Z,20.60
2022-07-29T07:06:30.474Z,20.90
2022-07-29T07:08:57.864Z,21.40
2022-07-29T07:11:25.293Z,21.90
2022-07-29T07:13:52.523Z,21.40
2022-07-29T07:16:19.735Z,20.40
2022-07-29T07:18:47.016Z,20.40
2022-07-29T07:21:19.139Z,21.20
2022-07-29T07:23:47.336Z,22.30
2022-07-29T07:26:14.832Z,22.40
2022-07-29T07:28:42.088Z,22.60
2022-07-29T07:31:09.238Z,22.50
2022-07-29T07:33:36.450Z,23.00
2022-07-29T07:36:04.423Z,22.80
2022-07-29T07:38:31.467Z,22.10
2022-07-29T07:40:58.726Z,21.60
2022-07-29T07:43:26.057Z,22.00
2022-07-29T07:45:53.206Z,22.40
2022-07-29T07:48:20.767Z,22.60
2022-07-29T07:50:52.763Z,22.80
2022-07-29T07:53:19.984Z,23.40
2022-07-29T07:56:09.571Z,23.80
2022-07-29T07:58:36.377Z,24.40
2022-07-29T08:01:04.351Z,24.70
2022-07-29T08:03:31.485Z,25.10
2022-07-29T08:05:58.682Z,25.60
2022-07-29T08:08:25.883Z,25.50
2022-07-29T08:10:53.212Z,25.70
2022-07-29T08:13:26.841Z,26.50
2022-07-29T08:16:01.550Z,26.20
2022-07-29T08:18:30.657Z,25.50
2022-07-29T08:20:58.160Z,25.50
2022-07-29T08:23:25.515Z,26.00
2022-07-29T08:25:54.807Z,26.30
2022-07-29T08:28:22.219Z,26.10
2022-07-29T08:30:53.315Z,26.10
2022-07-29T08:33:20.363Z,25.90
2022-07-29T08:35:47.516Z,26.70
2022-07-29T08:38:14.598Z,26.90
2022-07-29T08:40:42.938Z,26.80
2022-07-29T08:43:10.682Z,26.70
2022-07-29T08:45:49.142Z,26.90
2022-07-29T08:48:24.719Z,27.00
2022-07-29T08:50:57.024Z,27.50
2022-07-29T08:53:27.510Z,27.50
2022-07-29T08:55:54.944Z,27.60
2022-07-29T08:58:25.548Z,28.10
2022-07-29T09:00:55.547Z,28.40
2022-07-29T09:03:25.733Z,27.50
2022-07-29T09:05:53.627Z,27.60
2022-07-29T09:08:21.249Z,27.20
2022-07-29T09:10:49.161Z,27.90
2022-07-29T09:13:16.273Z,27.50
2022-07-29T09:15:43.350Z,27.60
2022-07-29T09:18:19.375Z,27.60
2022-07-29T09:21:15.930Z,28.20
2022-07-29T09:24:00.224Z,28.30
2022-07-29T09:26:38.719Z,28.60
2022-07-29T09:29:13.739Z,28.30
2022-07-29T09:31:43.209Z,28.50
2022-07-29T09:34:11.688Z,28.10
2022-07-29T09:36:43.693Z,27.80
2022-07-29T09:39:11.075Z,27.70
2022-07-29T09:41:55.146Z,27.60
2022-07-29T09:44:24.081Z,27.20
2022-07-29T09:47:09.519Z,27.40
2022-07-29T09:49:50.788Z,27.50
2022-07-29T09:52:17.821Z,28.00
2022-07-29T09:54:45.103Z,28.60
2022-07-29T09:57:32.458Z,28.60
2022-07-29T10:00:06.786Z,28.20
2022-07-29T10:02:37.152Z,28.80
2022-07-29T10:05:07.207Z,29.00
2022-07-29T10:07:53.520Z,28.70
2022-07-29T10:10:24.301Z,28.80
2022-07-29T10:12:56.477Z,28.90
2022-07-29T10:15:25.833Z,28.80
2022-07-29T10:17:55.140Z,28.80
2022-07-29T10:20:23.714Z,28.70
2022-07-29T10:22:53.724Z,29.30
2022-07-29T10:25:21.796Z,29.10
2022-07-29T10:27:50.191Z,29.70
2022-07-29T10:30:18.220Z,29.50
2022-07-29T10:33:04.754Z,29.70
2022-07-29T10:36:06.589Z,29.70
2022-07-29T10:38:47.141Z,30.00
2022-07-29T10:41:27.629Z,29.60
2022-07-29T10:44:07.103Z,29.70
2022-07-29T10:46:41.294Z,29.80
2022-07-29T10:49:25.234Z,29.70
2022-07-29T10:52:03.547Z,29.40
2022-07-29T10:54:43.877Z,29.50
2022-07-29T10:57:40.515Z,29.80
2022-07-29T11:00:11.258Z,29.80
2022-07-29T11:02:43.558Z,30.00
2022-07-29T11:05:16.655Z,30.10
2022-07-29T11:08:20.534Z,30.10
2022-07-29T11:10:49.974Z,29.80
2022-07-29T11:13:49.390Z,29.90
2022-07-29T11:16:20.209Z,29.80
2022-07-29T11:19:13.874Z,29.10
2022-07-29T11:21:54.729Z,28.80
2022-07-29T11:24:32.273Z,29.10
2022-07-29T11:27:21.370Z,29.10
2022-07-29T11:29:58.644Z,29.30
2022-07-29T11:32:39.156Z,29.30
2022-07-29T11:35:16.641Z,29.70
2022-07-29T11:37:50.777Z,30.20
2022-07-29T11:40:23.122Z,29.70
2022-07-29T11:42:52.030Z,29.10
2022-07-29T11:45:44.413Z,29.10
2022-07-29T11:48:32.196Z,28.60
2022-07-29T11:51:00.741Z,28.90
2022-07-29T11:53:32.830Z,28.70
2022-07-29T11:56:22.851Z,28.20
2022-07-29T11:59:05.609Z,28.00
2022-07-29T12:01:35.989Z,27.90
2022-07-29T12:04:08.277Z,28.30
2022-07-29T12:06:38.370Z,28.00
2022-07-29T12:09:14.566Z,28.20
2022-07-29T12:11:42.279Z,28.10
2022-07-29T12:14:30.383Z,28.10
2022-07-29T12:16:58.483Z,28.10
2022-07-29T12:19:26.415Z,28.80
2022-07-29T12:21:59.449Z,29.00
2022-07-29T12:24:27.464Z,29.50
2022-07-29T12:26:55.813Z,29.00
2022-07-29T12:29:33.681Z,28.70
2022-07-29T12:32:04.801Z,29.00
2022-07-29T12:34:32.884Z,29.30
2022-07-29T12:37:00.220Z,29.30
2022-07-29T12:39:29.072Z,29.20
2022-07-29T12:42:04.447Z,29.70
2022-07-29T12:44:52.575Z,29.80
2022-07-29T12:47:20.643Z,30.30
2022-07-29T12:49:48.450Z,29.90
2022-07-29T12:52:26.538Z,29.80
2022-07-29T12:54:53.877Z,29.30
2022-07-29T12:57:20.887Z,29.70
2022-07-29T13:00:11.153Z,29.40
2022-07-29T13:02:39.391Z,29.70
2022-07-29T13:05:09.326Z,30.30
2022-07-29T13:07:55.463Z,30.10
2022-07-29T13:10:26.187Z,29.80
2022-07-29T13:13:14.024Z,29.00
2022-07-29T13:15:49.586Z,28.70
2022-07-29T13:18:35.065Z,28.70
2022-07-29T13:21:16.561Z,28.90
2022-07-29T13:23:45.696Z,28.90
2022-07-29T13:26:13.235Z,28.80
2022-07-29T13:28:41.027Z,28.60
2022-07-29T13:31:11.552Z,28.70
2022-07-29T13:33:38.897Z,29.00
2022-07-29T13:36:06.135Z,28.60
2022-07-29T13:38:33.133Z,29.10
2022-07-29T13:41:00.910Z,29.10
2022-07-29T13:43:28.019Z,29.40
2022-07-29T13:45:55.290Z,29.70
2022-07-29T13:48:22.385Z,29.20
2022-07-29T13:50:49.654Z,28.80
2022-07-29T13:53:20.387Z,28.60
2022-07-29T13:55:54.943Z,28.60
2022-07-29T13:58:22.069Z,28.40
2022-07-29T14:00:51.284Z,28.00
2022-07-29T14:03:18.731Z,28.30
2022-07-29T14:05:45.875Z,28.90
2022-07-29T14:08:12.838Z,29.10
2022-07-29T14:10:40.086Z,28.70
2022-07-29T14:13:07.150Z,28.90
2022-07-29T14:15:52.075Z,29.30
2022-07-29T14:18:19.725Z,29.00
2022-07-29T14:20:48.064Z,28.90
2022-07-29T14:23:20.197Z,28.70
2022-07-29T14:25:47.993Z,28.90
2022-07-29T14:28:17.077Z,28.90
2022-07-29T14:30:44.383Z,28.20
2022-07-29T14:33:11.567Z,28.70
2022-07-29T14:35:38.788Z,28.40
2022-07-29T14:38:05.867Z,28.20
2022-07-29T14:40:33.651Z,28.30
2022-07-29T14:43:00.881Z,28.30
2022-07-29T14:45:29.336Z,27.90
2022-07-29T14:47:57.217Z,27.60
2022-07-29T14:50:32.043Z,27.80
2022-07-29T14:53:01.951Z,28.00
2022-07-29T14:55:30.037Z,27.50
2022-07-29T14:58:06.424Z,28.00
2022-07-29T15:00:38.000Z,27.60
2022-07-29T15:03:06.175Z,27.40
2022-07-29T15:05:33.654Z,27.50
2022-07-29T15:08:01.664Z,27.30
2022-07-29T15:10:29.135Z,26.90
2022-07-29T15:12:57.452Z,27.10
2022-07-29T15:15:24.569Z,27.30
2022-07-29T15:17:51.856Z,27.10
2022-07-29T15:20:19.621Z,26.70
2022-07-29T15:22:47.145Z,26.70
2022-07-29T15:25:14.189Z,26.20
2022-07-29T15:27:41.236Z,25.90
2022-07-29T15:30:29.058Z,26.00
2022-07-29T15:33:00.486Z,26.10
2022-07-29T15:35:27.526Z,25.30
2022-07-29T15:37:54.642Z,25.00
2022-07-29T15:40:21.686Z,24.70
2022-07-29T15:42:49.936Z,24.70
2022-07-29T15:45:16.934Z,24.30
2022-07-29T15:47:44.797Z,24.30
2022-07-29T15:50:15.980Z,24.30
2022-07-29T15:52:43.783Z,24.10
2022-07-29T15:55:11.418Z,23.90
2022-07-29T15:57:38.676Z,23.90
2022-07-29T16:00:06.270Z,23.90
2022-07-29T16:02:36.105Z,24.00
2022-07-29T16:05:03.172Z,23.90
2022-07-29T16:07:31.410Z,23.80
2022-07-29T16:10:00.007Z,23.30
2022-07-29T16:12:27.109Z,22.50
2022-07-29T16:14:54.181Z,21.70
2022-07-29T16:17:22.976Z,21.30
2022-07-29T16:19:50.269Z,21.00
2022-07-29T16:22:17.310Z,20.90
2022-07-29T16:24:44.600Z,20.70
2022-07-29T16:27:11.772Z,20.50
2022-07-29T16:29:38.811Z,20.30
2022-07-29T16:32:06.685Z,20.20
2022-07-29T16:34:33.976Z,20.10
2022-07-29T16:37:01.167Z,20.10
2022-07-29T16:39:28.744Z,19.90
2022-07-29T16:41:59.900Z,19.90
2022-07-29T16:44:28.693Z,20.00
2022-07-29T16:46:59.071Z,19.90
2022-07-29T16:49:27.438Z,19.80
2022-07-29T16:51:54.993Z,19.70
2022-07-29T16:54:22.151Z,19.70
2022-07-29T16:56:49.213Z,19.70
2022-07-29T16:59:16.348Z,19.70
2022-07-29T17:01:43.444Z,19.70
2022-07-29T17:04:12.274Z,19.80
2022-07-29T17:06:40.363Z,19.80
2022-07-29T17:09:09.609Z,19.70
2022-07-29T17:11:52.325Z,19.70
2022-07-29T17:14:26.040Z,19.50
2022-07-29T17:17:00.313Z,19.60
2022-07-29T17:19:35.640Z,19.50
2022-07-29T17:22:18.777Z,19.40
2022-07-29T17:24:47.100Z,19.30
2022-07-29T17:27:14.404Z,19.30
2022-07-29T17:29:41.692Z,19.30
2022-07-29T17:32:12.582Z,19.10
2022-07-29T17:34:41.225Z,19.00
2022-07-29T17:37:10.919Z,19.00
2022-07-29T17:39:41.126Z,19.00
2022-07-29T17:42:10.227Z,18.90
2022-07-29T17:44:37.435Z,19.00
2022-07-29T17:47:05.785Z,18.90
2022-07-29T17:49:36.303Z,18.70
2022-07-29T17:52:04.958Z,18.60
2022-07-29T17:54:32.097Z,18.60
2022-07-29T17:56:59.388Z,18.50
2022-07-29T17:59:27.452Z,18.40
2022-07-29T18:01:54.676Z,18.30
2022-07-29T18:04:23.685Z,18.30
2022-07-29T18:06:50.782Z,18.10
2022-07-29T18:09:17.834Z,18.10
2022-07-29T18:11:45.873Z,18.00
2022-07-29T18:14:13.652Z,17.90
2022-07-29T18:16:40.977Z,17.70
2022-07-29T18:19:08.254Z,17.70
2022-07-29T18:21:42.654Z,17.60
2022-07-29T18:24:18.381Z,17.50
2022-07-29T18:26:45.479Z,17.40
2022-07-29T18:29:12.552Z,17.40
2022-07-29T18:31:41.349Z,17.20
2022-07-29T18:34:08.586Z,17.20
2022-07-29T18:36:35.595Z,17.10
2022-07-29T18:39:02.774Z,17.00
2022-07-29T18:41:29.838Z,17.00
2022-07-29T18:43:56.827Z,16.80
2022-07-29T18:46:25.489Z,16.70
2022-07-29T18:48:52.747Z,16.60
2022-07-29T18:51:20.006Z,16.60
2022-07-29T18:53:47.107Z,16.40
2022-07-29T18:56:14.211Z,16.30
2022-07-29T18:58:41.192Z,16.10
2022-07-29T19:01:08.389Z,16.10
2022-07-29T19:03:35.494Z,16.00
2022-07-29T19:06:02.635Z,15.90
2022-07-29T19:08:29.789Z,15.90
2022-07-29T19:10:57.274Z,15.70
2022-07-29T19:13:24.490Z,15.60
2022-07-29T19:15:51.519Z,15.60
2022-07-29T19:18:18.638Z,15.50
2022-07-29T19:20:45.632Z,15.40
2022-07-29T19:23:12.856Z,15.40
2022-07-29T19:25:53.805Z,15.30
2022-07-29T19:28:21.741Z,15.20
2022-07-29T19:30:49.080Z,15.10
2022-07-29T19:33:17.798Z,15.00
2022-07-29T19:35:52.843Z,14.90
2022-07-29T19:38:22.278Z,14.90
2022-07-29T19:40:49.342Z,14.80
2022-07-29T19:43:51.297Z,14.70
2022-07-29T19:46:03.706Z,14.60
2022-07-29T19:48:30.996Z,14.50
2022-07-29T19:50:58.006Z,14.50
2022-07-29T19:53:25.005Z,14.40
2022-07-29T19:55:52.221Z,14.40
2022-07-29T19:58:19.523Z,14.30
2022-07-29T20:00:49.542Z,14.30
2022-07-29T20:03:16.863Z,14.20
2022-07-29T20:05:47.789Z,14.20
2022-07-29T20:08:15.186Z,14.20
2022-07-29T20:10:42.190Z,14.20
2022-07-29T20:13:09.433Z,14.20
2022-07-29T20:15:36.617Z,14.10
2022-07-29T20:18:03.951Z,14.00
2022-07-29T20:20:31.439Z,14.00
2022-07-29T20:22:59.457Z,13.90
2022-07-29T20:25:26.535Z,13.90
2022-07-29T20:27:54.446Z,13.80
2022-07-29T20:30:22.602Z,13.70
2022-07-29T20:32:50.037Z,13.70
2022-07-29T20:35:20.226Z,13.60
2022-07-29T20:37:56.213Z,13.60
2022-07-29T20:40:25.163Z,13.50
2022-07-29T20:42:52.430Z,13.50
2022-07-29T20:45:20.213Z,13.40
2022-07-29T20:47:47.302Z,13.40
2022-07-29T20:50:14.331Z,13.30
2022-07-29T20:52:43.597Z,13.30
2022-07-29T20:55:11.114Z,13.20
2022-07-29T20:57:39.885Z,13.20
2022-07-29T21:00:07.948Z,13.20
2022-07-29T21:02:35.358Z,13.20
2022-07-29T21:05:02.731Z,13.10
2022-07-29T21:07:29.860Z,13.10
2022-07-29T21:09:57.039Z,13.10
2022-07-29T21:12:24.228Z,13.10
2022-07-29T21:14:52.119Z,13.10
2022-07-29T21:17:22.761Z,13.00
2022-07-29T21:19:55.416Z,13.00
2022-07-29T21:22:22.577Z,12.90
2022-07-29T21:24:50.653Z,12.80
2022-07-29T21:27:38.325Z,12.90
2022-07-29T21:30:07.989Z,12.70
2022-07-29T21:32:35.162Z,12.70
2022-07-29T21:35:02.238Z,12.70
2022-07-29T21:37:29.264Z,12.60
2022-07-29T21:39:56.373Z,12.60
2022-07-29T21:42:23.411Z,12.50
2022-07-29T21:44:51.624Z,12.50
2022-07-29T21:47:18.645Z,12.50
2022-07-29T21:49:46.626Z,12.50
2022-07-29T21:52:14.433Z,12.40
2022-07-29T21:54:41.995Z,12.40
2022-07-29T21:57:09.609Z,12.40
2022-07-29T21:59:36.807Z,12.40
2022-07-29T22:02:04.035Z,12.30
2022-07-29T22:04:31.607Z,12.30
2022-07-29T22:06:59.296Z,12.20
2022-07-29T22:09:27.205Z,12.20
2022-07-29T22:11:54.862Z,12.20
2022-07-29T22:14:22.344Z,12.20
2022-07-29T22:16:49.488Z,12.00
2022-07-29T22:19:16.608Z,11.80
2022-07-29T22:21:43.858Z,11.80
2022-07-29T22:24:11.644Z,11.90
2022-07-29T22:26:38.966Z,11.80
2022-07-29T22:29:06.737Z,11.70
2022-07-29T22:31:33.812Z,11.80
2022-07-29T22:34:01.069Z,11.70
2022-07-29T22:36:28.048Z,11.70
2022-07-29T22:38:55.083Z,11.70
2022-07-29T22:41:22.079Z,11.70
2022-07-29T22:43:49.140Z,11.70
2022-07-29T22:46:16.281Z,11.60
2022-07-29T22:48:43.428Z,11.50
2022-07-29T22:51:10.506Z,11.50
2022-07-29T22:53:37.526Z,11.40
2022-07-29T22:56:04.772Z,11.50
2022-07-29T22:58:31.814Z,11.40
2022-07-29T23:00:58.988Z,11.40
2022-07-29T23:03:26.049Z,11.30
2022-07-29T23:05:53.078Z,11.40
2022-07-29T23:08:20.966Z,11.30
2022-07-29T23:10:48.325Z,11.40
2022-07-29T23:13:15.502Z,11.40
2022-07-29T23:15:42.492Z,11.30
2022-07-29T23:18:09.919Z,11.20
2022-07-29T23:20:36.973Z,11.10
2022-07-29T23:23:04.318Z,11.20
2022-07-29T23:25:31.681Z,11.00
2022-07-29T23:27:58.732Z,11.10
2022-07-29T23:30:25.952Z,11.00
2022-07-29T23:32:53.375Z,10.90
2022-07-29T23:35:20.419Z,11.00
2022-07-29T23:37:47.612Z,10.90
2022-07-29T23:40:15.165Z,11.00
2022-07-29T23:42:43.167Z,11.00
2022-07-29T23:45:11.815Z,10.90
2022-07-29T23:47:39.016Z,10.90
2022-07-29T23:50:09.803Z,10.90
2022-07-29T23:52:36.819Z,10.90
2022-07-29T23:55:36.982Z,10.80
2022-07-29T23:57:51.962Z,10.80
